sensor_id;sensor_type;location;lat;lon;timestamp;pressure;altitude;pressure_sealevel;temperature;humidity
79540;BME280;68991;52.122;5.406;2023-05-14T00:00:20;102203.22;;;20.01;61.79
79540;BME280;68991;52.122;5.406;2023-05-14T00:02:47;102201.47;;;20.00;61.69
79540;BME280;68991;52.122;5.406;2023-05-14T00:05:14;102200.56;;;19.99;61.72
79540;BME280;68991;52.122;5.406;2023-05-14T00:07:40;102195.25;;;19.98;61.84
79540;BME280;68991;52.122;5.406;2023-05-14T00:10:07;102196.22;;;19.97;61.77
79540;BME280;68991;52.122;5.406;2023-05-14T00:12:34;102192.69;;;19.95;61.95
79540;BME280;68991;52.122;5.406;2023-05-14T00:15:00;102183.66;;;19.94;61.83
79540;BME280;68991;52.122;5.406;2023-05-14T00:17:27;102180.03;;;19.94;62.00
79540;BME280;68991;52.122;5.406;2023-05-14T00:19:54;102180.13;;;19.92;61.85
79540;BME280;68991;52.122;5.406;2023-05-14T00:22:20;102176.53;;;19.92;61.81
79540;BME280;68991;52.122;5.406;2023-05-14T00:24:47;102185.72;;;19.91;61.71
79540;BME280;68991;52.122;5.406;2023-05-14T00:27:13;102171.28;;;19.88;61.67
79540;BME280;68991;52.122;5.406;2023-05-14T00:29:39;102172.25;;;19.87;61.99
79540;BME280;68991;52.122;5.406;2023-05-14T00:32:06;102177.81;;;19.86;61.62
79540;BME280;68991;52.122;5.406;2023-05-14T00:34:33;102173.25;;;19.86;61.55
79540;BME280;68991;52.122;5.406;2023-05-14T00:37:01;102175.19;;;19.84;61.53
79540;BME280;68991;52.122;5.406;2023-05-14T00:39:27;102168.97;;;19.82;61.70
79540;BME280;68991;52.122;5.406;2023-05-14T00:41:53;102169.84;;;19.83;61.78
79540;BME280;68991;52.122;5.406;2023-05-14T00:44:20;102159.03;;;19.81;61.66
79540;BME280;68991;52.122;5.406;2023-05-14T00:46:46;102161.75;;;19.81;61.87
79540;BME280;68991;52.122;5.406;2023-05-14T00:49:14;102165.44;;;19.80;61.68
79540;BME280;68991;52.122;5.406;2023-05-14T00:51:40;102157.25;;;19.80;61.87
79540;BME280;68991;52.122;5.406;2023-05-14T00:54:08;102149.19;;;19.79;61.83
79540;BME280;68991;52.122;5.406;2023-05-14T00:56:34;102147.44;;;19.78;61.67
79540;BME280;68991;52.122;5.406;2023-05-14T00:59:01;102143.81;;;19.77;61.65
79540;BME280;68991;52.122;5.406;2023-05-14T01:01:27;102138.50;;;19.76;61.79
79540;BME280;68991;52.122;5.406;2023-05-14T01:03:54;102138.50;;;19.76;61.77
79540;BME280;68991;52.122;5.406;2023-05-14T01:06:35;102143.94;;;19.76;61.95
79540;BME280;68991;52.122;5.406;2023-05-14T01:09:24;102143.06;;;19.75;61.72
79540;BME280;68991;52.122;5.406;2023-05-14T01:11:56;102151.34;;;19.74;61.66
79540;BME280;68991;52.122;5.406;2023-05-14T01:14:49;102150.47;;;19.73;61.84
79540;BME280;68991;52.122;5.406;2023-05-14T01:17:18;102142.41;;;19.72;61.72
79540;BME280;68991;52.122;5.406;2023-05-14T01:19:46;102136.06;;;19.71;61.90
79540;BME280;68991;52.122;5.406;2023-05-14T01:22:13;102143.50;;;19.69;61.64
79540;BME280;68991;52.122;5.406;2023-05-14T01:24:40;102138.88;;;19.70;61.71
79540;BME280;68991;52.122;5.406;2023-05-14T01:27:23;102141.72;;;19.68;61.68
79540;BME280;68991;52.122;5.406;2023-05-14T01:30:00;102139.97;;;19.67;61.77
79540;BME280;68991;52.122;5.406;2023-05-14T01:32:29;102145.44;;;19.67;61.75
79540;BME280;68991;52.122;5.406;2023-05-14T01:34:57;102143.66;;;19.66;61.68
79540;BME280;68991;52.122;5.406;2023-05-14T01:37:26;102142.91;;;19.64;61.80
79540;BME280;68991;52.122;5.406;2023-05-14T01:39:55;102150.22;;;19.64;61.74
79540;BME280;68991;52.122;5.406;2023-05-14T01:42:22;102143.00;;;19.63;61.88
79540;BME280;68991;52.122;5.406;2023-05-14T01:44:49;102144.00;;;19.62;61.85
79540;BME280;68991;52.122;5.406;2023-05-14T01:47:15;102134.94;;;19.61;61.81
79540;BME280;68991;52.122;5.406;2023-05-14T01:49:42;102137.75;;;19.60;61.86
79540;BME280;68991;52.122;5.406;2023-05-14T01:52:08;102140.47;;;19.60;61.78
79540;BME280;68991;52.122;5.406;2023-05-14T01:54:34;102130.56;;;19.59;61.74
79540;BME280;68991;52.122;5.406;2023-05-14T01:57:01;102133.38;;;19.57;61.84
79540;BME280;68991;52.122;5.406;2023-05-14T01:59:27;102136.13;;;19.57;61.91
79540;BME280;68991;52.122;5.406;2023-05-14T02:01:55;102127.06;;;19.57;61.91
79540;BME280;68991;52.122;5.406;2023-05-14T02:04:21;102120.72;;;19.56;61.87
79540;BME280;68991;52.122;5.406;2023-05-14T02:06:48;102119.00;;;19.55;61.84
79540;BME280;68991;52.122;5.406;2023-05-14T02:09:14;102113.63;;;19.54;61.94
79540;BME280;68991;52.122;5.406;2023-05-14T02:11:41;102105.53;;;19.52;62.02
79540;BME280;68991;52.122;5.406;2023-05-14T02:14:07;102105.53;;;19.52;61.78
79540;BME280;68991;52.122;5.406;2023-05-14T02:16:33;102104.69;;;19.52;61.87
79540;BME280;68991;52.122;5.406;2023-05-14T02:19:00;102106.53;;;19.51;61.86
79540;BME280;68991;52.122;5.406;2023-05-14T02:21:26;102103.88;;;19.50;61.83
79540;BME280;68991;52.122;5.406;2023-05-14T02:23:53;102117.53;;;19.50;61.89
79540;BME280;68991;52.122;5.406;2023-05-14T02:26:19;102114.91;;;19.48;62.14
79540;BME280;68991;52.122;5.406;2023-05-14T02:28:46;102113.03;;;19.49;61.94
79540;BME280;68991;52.122;5.406;2023-05-14T02:31:13;102118.63;;;19.47;61.60
79540;BME280;68991;52.122;5.406;2023-05-14T02:33:39;102110.44;;;19.47;62.29
79540;BME280;68991;52.122;5.406;2023-05-14T02:36:06;102109.56;;;19.47;61.91
79540;BME280;68991;52.122;5.406;2023-05-14T02:38:32;102097.88;;;19.45;61.65
79540;BME280;68991;52.122;5.406;2023-05-14T02:40:59;102103.34;;;19.45;62.00
79540;BME280;68991;52.122;5.406;2023-05-14T02:43:25;102105.19;;;19.44;61.95
79540;BME280;68991;52.122;5.406;2023-05-14T02:45:52;102096.22;;;19.42;61.82
79540;BME280;68991;52.122;5.406;2023-05-14T02:48:18;102099.94;;;19.41;62.46
79540;BME280;68991;52.122;5.406;2023-05-14T02:50:44;102091.75;;;19.41;62.21
79540;BME280;68991;52.122;5.406;2023-05-14T02:53:11;102089.03;;;19.41;61.89
79540;BME280;68991;52.122;5.406;2023-05-14T02:55:38;102098.16;;;19.40;61.93
79540;BME280;68991;52.122;5.406;2023-05-14T02:58:04;102092.78;;;19.38;61.96
79540;BME280;68991;52.122;5.406;2023-05-14T03:00:31;102083.72;;;19.38;61.91
79540;BME280;68991;52.122;5.406;2023-05-14T03:02:58;102098.34;;;19.37;62.02
79540;BME280;68991;52.122;5.406;2023-05-14T03:05:24;102090.19;;;19.37;62.48
79540;BME280;68991;52.122;5.406;2023-05-14T03:07:51;102093.00;;;19.35;61.95
79540;BME280;68991;52.122;5.406;2023-05-14T03:10:19;102095.72;;;19.35;62.07
79540;BME280;68991;52.122;5.406;2023-05-14T03:12:45;102093.97;;;19.34;62.20
79540;BME280;68991;52.122;5.406;2023-05-14T03:15:12;102089.50;;;19.33;62.24
79540;BME280;68991;52.122;5.406;2023-05-14T03:17:39;102085.03;;;19.32;61.81
79540;BME280;68991;52.122;5.406;2023-05-14T03:20:05;102088.72;;;19.31;62.00
79540;BME280;68991;52.122;5.406;2023-05-14T03:22:32;102095.03;;;19.32;62.20
79540;BME280;68991;52.122;5.406;2023-05-14T03:24:58;102092.44;;;19.30;62.05
79540;BME280;68991;52.122;5.406;2023-05-14T03:27:25;102087.97;;;19.29;62.06
79540;BME280;68991;52.122;5.406;2023-05-14T03:29:51;102078.91;;;19.29;62.35
79540;BME280;68991;52.122;5.406;2023-05-14T03:32:17;102088.91;;;19.28;61.89
79540;BME280;68991;52.122;5.406;2023-05-14T03:34:44;102089.88;;;19.27;62.01
79540;BME280;68991;52.122;5.406;2023-05-14T03:37:11;102092.63;;;19.27;62.05
79540;BME280;68991;52.122;5.406;2023-05-14T03:39:37;102083.59;;;19.27;62.31
79540;BME280;68991;52.122;5.406;2023-05-14T03:42:04;102084.56;;;19.26;62.12
79540;BME280;68991;52.122;5.406;2023-05-14T03:44:30;102091.84;;;19.25;62.22
79540;BME280;68991;52.122;5.406;2023-05-14T03:46:56;102087.38;;;19.24;62.14
79540;BME280;68991;52.122;5.406;2023-05-14T03:49:23;102085.53;;;19.25;61.98
79540;BME280;68991;52.122;5.406;2023-05-14T03:51:50;102080.19;;;19.23;62.04
79540;BME280;68991;52.122;5.406;2023-05-14T03:54:16;102082.91;;;19.23;62.02
79540;BME280;68991;52.122;5.406;2023-05-14T03:56:43;102076.66;;;19.21;62.12
79540;BME280;68991;52.122;5.406;2023-05-14T03:59:09;102083.00;;;19.22;62.26
79540;BME280;68991;52.122;5.406;2023-05-14T04:01:36;102080.38;;;19.20;61.99
79540;BME280;68991;52.122;5.406;2023-05-14T04:04:02;102073.19;;;19.19;62.13
79540;BME280;68991;52.122;5.406;2023-05-14T04:06:29;102071.34;;;19.20;61.93
79540;BME280;68991;52.122;5.406;2023-05-14T04:08:56;102073.19;;;19.19;61.96
79540;BME280;68991;52.122;5.406;2023-05-14T04:11:22;102066.84;;;19.19;62.04
79540;BME280;68991;52.122;5.406;2023-05-14T04:13:49;102073.19;;;19.19;62.22
79540;BME280;68991;52.122;5.406;2023-05-14T04:16:15;102071.44;;;19.18;62.09
79540;BME280;68991;52.122;5.406;2023-05-14T04:18:41;102065.09;;;19.18;62.22
79540;BME280;68991;52.122;5.406;2023-05-14T04:21:08;102068.78;;;19.17;62.04
79540;BME280;68991;52.122;5.406;2023-05-14T04:23:34;102065.09;;;19.18;62.05
79540;BME280;68991;52.122;5.406;2023-05-14T04:26:01;102063.34;;;19.17;62.26
79540;BME280;68991;52.122;5.406;2023-05-14T04:28:27;102068.78;;;19.17;62.07
79540;BME280;68991;52.122;5.406;2023-05-14T04:30:53;102072.50;;;19.16;62.04
79540;BME280;68991;52.122;5.406;2023-05-14T04:33:20;102071.50;;;19.17;62.14
79540;BME280;68991;52.122;5.406;2023-05-14T04:35:47;102064.34;;;19.16;62.05
79540;BME280;68991;52.122;5.406;2023-05-14T04:38:13;102073.41;;;19.16;62.15
79540;BME280;68991;52.122;5.406;2023-05-14T04:40:40;102072.50;;;19.16;61.99
79540;BME280;68991;52.122;5.406;2023-05-14T04:43:09;102076.13;;;19.16;61.84
79540;BME280;68991;52.122;5.406;2023-05-14T04:45:36;102069.78;;;19.16;62.00
79540;BME280;68991;52.122;5.406;2023-05-14T04:48:03;102066.19;;;19.15;62.12
79540;BME280;68991;52.122;5.406;2023-05-14T04:50:30;102065.31;;;19.15;61.99
79540;BME280;68991;52.122;5.406;2023-05-14T04:52:56;102069.78;;;19.16;62.10
79540;BME280;68991;52.122;5.406;2023-05-14T04:55:22;102072.50;;;19.16;62.01
79540;BME280;68991;52.122;5.406;2023-05-14T04:57:49;102072.50;;;19.16;61.89
79540;BME280;68991;52.122;5.406;2023-05-14T05:00:16;102075.25;;;19.16;62.00
79540;BME280;68991;52.122;5.406;2023-05-14T05:02:42;102074.38;;;19.15;62.01
79540;BME280;68991;52.122;5.406;2023-05-14T05:05:09;102081.56;;;19.16;61.90
79540;BME280;68991;52.122;5.406;2023-05-14T05:07:35;102077.97;;;19.16;62.08
79540;BME280;68991;52.122;5.406;2023-05-14T05:10:02;102075.13;;;19.17;61.89
79540;BME280;68991;52.122;5.406;2023-05-14T05:12:28;102074.25;;;19.17;61.91
79540;BME280;68991;52.122;5.406;2023-05-14T05:14:56;102080.56;;;19.17;62.00
79540;BME280;68991;52.122;5.406;2023-05-14T05:17:23;102076.88;;;19.18;61.62
79540;BME280;68991;52.122;5.406;2023-05-14T05:19:50;102074.25;;;19.17;61.88
79540;BME280;68991;52.122;5.406;2023-05-14T05:22:16;102079.69;;;19.17;61.98
79540;BME280;68991;52.122;5.406;2023-05-14T05:24:42;102068.78;;;19.17;61.88
79540;BME280;68991;52.122;5.406;2023-05-14T05:27:09;102078.72;;;19.18;61.61
79540;BME280;68991;52.122;5.406;2023-05-14T05:29:36;102081.44;;;19.18;61.81
79540;BME280;68991;52.122;5.406;2023-05-14T05:32:03;102091.38;;;19.19;61.99
79540;BME280;68991;52.122;5.406;2023-05-14T05:34:29;102088.66;;;19.19;61.66
79540;BME280;68991;52.122;5.406;2023-05-14T05:36:56;102089.53;;;19.19;62.18
79540;BME280;68991;52.122;5.406;2023-05-14T05:39:22;102090.44;;;19.20;61.85
79540;BME280;68991;52.122;5.406;2023-05-14T05:41:49;102079.53;;;19.20;61.72
79540;BME280;68991;52.122;5.406;2023-05-14T05:44:16;102082.25;;;19.20;61.75
79540;BME280;68991;52.122;5.406;2023-05-14T05:46:42;102075.78;;;19.21;61.70
79540;BME280;68991;52.122;5.406;2023-05-14T05:49:09;102083.97;;;19.21;61.81
79540;BME280;68991;52.122;5.406;2023-05-14T05:51:35;102092.16;;;19.21;61.79
79540;BME280;68991;52.122;5.406;2023-05-14T05:54:02;102094.00;;;19.20;61.71
79540;BME280;68991;52.122;5.406;2023-05-14T05:56:28;102092.16;;;19.21;61.79
79540;BME280;68991;52.122;5.406;2023-05-14T05:58:55;102091.28;;;19.20;61.82
79540;BME280;68991;52.122;5.406;2023-05-14T06:01:21;102093.03;;;19.21;61.64
79540;BME280;68991;52.122;5.406;2023-05-14T06:03:48;102086.69;;;19.21;61.53
79540;BME280;68991;52.122;5.406;2023-05-14T06:06:14;102091.19;;;19.22;61.67
79540;BME280;68991;52.122;5.406;2023-05-14T06:08:41;102098.47;;;19.21;61.75
79540;BME280;68991;52.122;5.406;2023-05-14T06:11:07;102093.69;;;19.25;61.75
79540;BME280;68991;52.122;5.406;2023-05-14T06:13:34;102093.63;;;19.26;62.01
79540;BME280;68991;52.122;5.406;2023-05-14T06:16:00;102091.56;;;19.30;62.08
79540;BME280;68991;52.122;5.406;2023-05-14T06:18:26;102105.00;;;19.33;62.02
79540;BME280;68991;52.122;5.406;2023-05-14T06:20:53;102103.91;;;19.35;62.34
79540;BME280;68991;52.122;5.406;2023-05-14T06:23:21;102094.63;;;19.38;62.62
79540;BME280;68991;52.122;5.406;2023-05-14T06:25:48;102094.50;;;19.41;62.57
79540;BME280;68991;52.122;5.406;2023-05-14T06:28:16;102109.75;;;19.44;62.65
79540;BME280;68991;52.122;5.406;2023-05-14T06:30:42;102103.22;;;19.46;62.32
79540;BME280;68991;52.122;5.406;2023-05-14T06:33:09;102112.19;;;19.48;62.56
79540;BME280;68991;52.122;5.406;2023-05-14T06:35:35;102106.53;;;19.51;62.79
79540;BME280;68991;52.122;5.406;2023-05-14T06:38:02;102097.34;;;19.52;62.70
79540;BME280;68991;52.122;5.406;2023-05-14T06:40:28;102097.16;;;19.55;62.80
79540;BME280;68991;52.122;5.406;2023-05-14T06:42:55;102092.47;;;19.57;62.73
79540;BME280;68991;52.122;5.406;2023-05-14T06:45:21;102085.03;;;19.59;62.31
79540;BME280;68991;52.122;5.406;2023-05-14T06:47:48;102102.19;;;19.61;62.46
79540;BME280;68991;52.122;5.406;2023-05-14T06:50:14;102094.78;;;19.63;62.36
79540;BME280;68991;52.122;5.406;2023-05-14T06:52:41;102096.53;;;19.64;62.46
79540;BME280;68991;52.122;5.406;2023-05-14T06:55:08;102091.81;;;19.66;62.39
79540;BME280;68991;52.122;5.406;2023-05-14T06:57:35;102085.41;;;19.67;62.38
79540;BME280;68991;52.122;5.406;2023-05-14T07:00:04;102081.59;;;19.70;61.99
79540;BME280;68991;52.122;5.406;2023-05-14T07:02:30;102086.94;;;19.71;61.94
79540;BME280;68991;52.122;5.406;2023-05-14T07:04:57;102085.84;;;19.74;61.80
79540;BME280;68991;52.122;5.406;2023-05-14T07:07:23;102084.00;;;19.74;61.82
79540;BME280;68991;52.122;5.406;2023-05-14T07:09:50;102084.78;;;19.76;62.03
79540;BME280;68991;52.122;5.406;2023-05-14T07:12:16;102087.41;;;19.78;62.06
79540;BME280;68991;52.122;5.406;2023-05-14T07:14:42;102088.28;;;19.78;62.02
79540;BME280;68991;52.122;5.406;2023-05-14T07:17:09;102088.28;;;19.78;61.73
79540;BME280;68991;52.122;5.406;2023-05-14T07:19:36;102091.75;;;19.80;61.86
79540;BME280;68991;52.122;5.406;2023-05-14T07:22:03;102087.19;;;19.81;62.12
79540;BME280;68991;52.122;5.406;2023-05-14T07:24:29;102088.94;;;19.82;62.17
79540;BME280;68991;52.122;5.406;2023-05-14T07:26:55;102086.00;;;19.85;62.73
79540;BME280;68991;52.122;5.406;2023-05-14T07:29:22;102091.38;;;19.86;62.78
79540;BME280;68991;52.122;5.406;2023-05-14T07:31:50;102084.81;;;19.89;62.19
79540;BME280;68991;52.122;5.406;2023-05-14T07:34:17;102085.56;;;19.91;62.61
79540;BME280;68991;52.122;5.406;2023-05-14T07:36:44;102075.31;;;19.95;62.53
79540;BME280;68991;52.122;5.406;2023-05-14T07:39:11;102078.81;;;19.97;62.54
79540;BME280;68991;52.122;5.406;2023-05-14T07:41:37;102077.84;;;19.98;61.42
79540;BME280;68991;52.122;5.406;2023-05-14T07:44:04;102079.59;;;19.99;62.10
79540;BME280;68991;52.122;5.406;2023-05-14T07:46:30;102077.84;;;19.98;62.25
79540;BME280;68991;52.122;5.406;2023-05-14T07:48:56;102074.13;;;19.99;62.16
79540;BME280;68991;52.122;5.406;2023-05-14T07:51:23;102072.28;;;19.99;62.20
79540;BME280;68991;52.122;5.406;2023-05-14T07:53:53;102065.72;;;20.02;62.16
79540;BME280;68991;52.122;5.406;2023-05-14T07:56:21;102072.94;;;20.03;62.05
79540;BME280;68991;52.122;5.406;2023-05-14T07:58:49;102067.38;;;20.04;61.92
79540;BME280;68991;52.122;5.406;2023-05-14T08:01:16;102067.25;;;20.06;61.84
79540;BME280;68991;52.122;5.406;2023-05-14T08:03:43;102059.84;;;20.08;62.14
79540;BME280;68991;52.122;5.406;2023-05-14T08:06:10;102076.00;;;20.11;61.86
79540;BME280;68991;52.122;5.406;2023-05-14T08:08:36;102070.53;;;20.11;61.72
79540;BME280;68991;52.122;5.406;2023-05-14T08:11:03;102069.56;;;20.12;61.67
79540;BME280;68991;52.122;5.406;2023-05-14T08:13:29;102069.56;;;20.12;61.53
79540;BME280;68991;52.122;5.406;2023-05-14T08:15:56;102063.09;;;20.13;61.48
79540;BME280;68991;52.122;5.406;2023-05-14T08:18:22;102067.59;;;20.14;61.43
79540;BME280;68991;52.122;5.406;2023-05-14T08:20:49;102067.59;;;20.14;61.66
79540;BME280;68991;52.122;5.406;2023-05-14T08:23:15;102067.50;;;20.15;61.43
79540;BME280;68991;52.122;5.406;2023-05-14T08:25:42;102068.25;;;20.17;61.72
79540;BME280;68991;52.122;5.406;2023-05-14T08:28:08;102070.00;;;20.18;61.26
79540;BME280;68991;52.122;5.406;2023-05-14T08:30:35;102069.78;;;20.21;61.23
79540;BME280;68991;52.122;5.406;2023-05-14T08:33:01;102071.44;;;20.24;61.16
79540;BME280;68991;52.122;5.406;2023-05-14T08:35:28;102073.94;;;20.27;60.95
79540;BME280;68991;52.122;5.406;2023-05-14T08:37:54;102067.53;;;20.28;61.15
79540;BME280;68991;52.122;5.406;2023-05-14T08:40:22;102069.16;;;20.30;60.78
79540;BME280;68991;52.122;5.406;2023-05-14T08:42:50;102068.19;;;20.31;60.83
79540;BME280;68991;52.122;5.406;2023-05-14T08:45:20;102062.63;;;20.33;60.98
79540;BME280;68991;52.122;5.406;2023-05-14T08:47:48;102066.13;;;20.35;60.98
79540;BME280;68991;52.122;5.406;2023-05-14T08:50:16;102056.94;;;20.36;60.74
79540;BME280;68991;52.122;5.406;2023-05-14T08:52:46;102054.00;;;20.39;60.74
79540;BME280;68991;52.122;5.406;2023-05-14T08:55:12;102049.28;;;20.41;60.43
79540;BME280;68991;52.122;5.406;2023-05-14T08:57:39;102052.78;;;20.43;60.44
79540;BME280;68991;52.122;5.406;2023-05-14T09:00:06;102051.69;;;20.46;60.53
79540;BME280;68991;52.122;5.406;2023-05-14T09:02:40;102059.78;;;20.47;60.40
79540;BME280;68991;52.122;5.406;2023-05-14T09:05:08;102056.03;;;20.48;60.02
79540;BME280;68991;52.122;5.406;2023-05-14T09:07:35;102053.31;;;20.48;60.22
79540;BME280;68991;52.122;5.406;2023-05-14T09:10:01;102048.50;;;20.52;60.09
79540;BME280;68991;52.122;5.406;2023-05-14T09:12:29;102052.03;;;20.54;60.24
79540;BME280;68991;52.122;5.406;2023-05-14T09:14:56;102040.84;;;20.57;60.13
79540;BME280;68991;52.122;5.406;2023-05-14T09:17:25;102044.47;;;20.57;60.23
79540;BME280;68991;52.122;5.406;2023-05-14T09:19:52;102037.03;;;20.59;60.20
79540;BME280;68991;52.122;5.406;2023-05-14T09:22:19;102030.59;;;20.60;60.01
79540;BME280;68991;52.122;5.406;2023-05-14T09:24:45;102031.31;;;20.62;60.08
79540;BME280;68991;52.122;5.406;2023-05-14T09:27:28;102030.25;;;20.65;59.86
79540;BME280;68991;52.122;5.406;2023-05-14T09:29:55;102029.16;;;20.67;60.00
79540;BME280;68991;52.122;5.406;2023-05-14T09:32:21;102031.78;;;20.69;59.89
79540;BME280;68991;52.122;5.406;2023-05-14T09:34:48;102018.88;;;20.71;59.51
79540;BME280;68991;52.122;5.406;2023-05-14T09:37:14;102024.09;;;20.74;59.41
79540;BME280;68991;52.122;5.406;2023-05-14T09:39:40;102029.34;;;20.77;59.72
79540;BME280;68991;52.122;5.406;2023-05-14T09:42:07;102014.59;;;20.79;59.83
79540;BME280;68991;52.122;5.406;2023-05-14T09:44:33;102016.22;;;20.82;59.65
79540;BME280;68991;52.122;5.406;2023-05-14T09:47:01;102013.16;;;20.87;59.59
79540;BME280;68991;52.122;5.406;2023-05-14T09:49:28;102017.50;;;20.89;59.17
79540;BME280;68991;52.122;5.406;2023-05-14T09:51:54;102019.91;;;20.94;59.43
79540;BME280;68991;52.122;5.406;2023-05-14T09:54:25;102014.22;;;20.97;59.07
79540;BME280;68991;52.122;5.406;2023-05-14T09:56:51;102006.75;;;20.99;59.27
79540;BME280;68991;52.122;5.406;2023-05-14T09:59:20;102022.81;;;21.03;59.07
79540;BME280;68991;52.122;5.406;2023-05-14T10:01:47;102009.78;;;21.07;58.78
79540;BME280;68991;52.122;5.406;2023-05-14T10:04:15;102012.28;;;21.10;58.78
79540;BME280;68991;52.122;5.406;2023-05-14T10:06:43;102007.59;;;21.12;58.93
79540;BME280;68991;52.122;5.406;2023-05-14T10:09:15;102007.25;;;21.16;58.77
79540;BME280;68991;52.122;5.406;2023-05-14T10:11:47;102002.34;;;21.21;58.49
79540;BME280;68991;52.122;5.406;2023-05-14T10:14:26;102000.34;;;21.23;59.04
79540;BME280;68991;52.122;5.406;2023-05-14T10:16:55;101998.25;;;21.27;58.99
79540;BME280;68991;52.122;5.406;2023-05-14T10:19:24;102000.75;;;21.30;58.75
79540;BME280;68991;52.122;5.406;2023-05-14T10:22:04;101997.66;;;21.34;58.78
79540;BME280;68991;52.122;5.406;2023-05-14T10:24:31;101993.69;;;21.39;58.40
79540;BME280;68991;52.122;5.406;2023-05-14T10:26:58;101989.75;;;21.43;58.38
79540;BME280;68991;52.122;5.406;2023-05-14T10:29:35;101986.78;;;21.46;58.01
79540;BME280;68991;52.122;5.406;2023-05-14T10:32:04;101981.94;;;21.49;58.16
79540;BME280;68991;52.122;5.406;2023-05-14T10:37:05;101984.97;;;21.57;57.75
79540;BME280;68991;52.122;5.406;2023-05-14T10:42:17;101993.31;;;21.67;57.66
79540;BME280;68991;52.122;5.406;2023-05-14T10:44:59;101983.00;;;21.70;57.71
79540;BME280;68991;52.122;5.406;2023-05-14T10:47:27;101976.28;;;21.74;57.58
79540;BME280;68991;52.122;5.406;2023-05-14T10:49:55;101975.06;;;21.78;57.37
79540;BME280;68991;52.122;5.406;2023-05-14T10:52:23;101970.22;;;21.82;57.34
79540;BME280;68991;52.122;5.406;2023-05-14T10:57:25;101964.09;;;21.90;57.42
79540;BME280;68991;52.122;5.406;2023-05-14T10:59:54;101972.97;;;21.93;57.09
79540;BME280;68991;52.122;5.406;2023-05-14T11:02:25;101962.66;;;21.97;57.32
79540;BME280;68991;52.122;5.406;2023-05-14T11:07:34;101959.47;;;22.14;56.76
79540;BME280;68991;52.122;5.406;2023-05-14T11:12:34;101951.13;;;22.26;56.07
79540;BME280;68991;52.122;5.406;2023-05-14T11:15:04;101949.88;;;22.30;56.19
79540;BME280;68991;52.122;5.406;2023-05-14T11:17:32;101949.72;;;22.32;56.44
79540;BME280;68991;52.122;5.406;2023-05-14T11:19:59;101951.38;;;22.35;56.13
79540;BME280;68991;52.122;5.406;2023-05-14T11:22:26;101953.72;;;22.39;56.27
79540;BME280;68991;52.122;5.406;2023-05-14T11:24:52;101948.00;;;22.42;55.86
79540;BME280;68991;52.122;5.406;2023-05-14T11:27:20;101945.88;;;22.46;55.83
79540;BME280;68991;52.122;5.406;2023-05-14T11:29:48;101940.88;;;22.51;55.65
79540;BME280;68991;52.122;5.406;2023-05-14T11:32:16;101934.88;;;22.57;55.82
79540;BME280;68991;52.122;5.406;2023-05-14T11:34:44;101931.06;;;22.70;55.27
79540;BME280;68991;52.122;5.406;2023-05-14T11:37:12;101930.97;;;22.93;54.79
79540;BME280;68991;52.122;5.406;2023-05-14T11:42:14;101924.75;;;23.54;52.94
79540;BME280;68991;52.122;5.406;2023-05-14T11:44:48;101923.69;;;23.87;52.21
79540;BME280;68991;52.122;5.406;2023-05-14T11:47:16;101914.13;;;24.12;51.64
79540;BME280;68991;52.122;5.406;2023-05-14T11:49:44;101923.88;;;24.16;51.58
79540;BME280;68991;52.122;5.406;2023-05-14T11:52:12;101923.31;;;24.22;51.07
79540;BME280;68991;52.122;5.406;2023-05-14T11:54:42;101920.41;;;24.23;51.20
79540;BME280;68991;52.122;5.406;2023-05-14T11:57:14;101919.00;;;24.29;50.85
79540;BME280;68991;52.122;5.406;2023-05-14T11:59:41;101913.41;;;24.50;50.51
79540;BME280;68991;52.122;5.406;2023-05-14T12:02:13;101912.81;;;24.96;49.48
79540;BME280;68991;52.122;5.406;2023-05-14T12:04:41;101908.91;;;25.37;48.83
79540;BME280;68991;52.122;5.406;2023-05-14T12:07:13;101904.06;;;25.87;47.34
79540;BME280;68991;52.122;5.406;2023-05-14T12:09:43;101902.63;;;26.29;46.04
79540;BME280;68991;52.122;5.406;2023-05-14T12:12:19;101895.41;;;26.73;45.18
79540;BME280;68991;52.122;5.406;2023-05-14T12:14:47;101901.22;;;26.97;44.68
79540;BME280;68991;52.122;5.406;2023-05-14T12:17:16;101883.03;;;26.77;44.99
79540;BME280;68991;52.122;5.406;2023-05-14T12:19:44;101893.53;;;26.19;45.78
79540;BME280;68991;52.122;5.406;2023-05-14T12:22:13;101891.81;;;25.43;47.99
79540;BME280;68991;52.122;5.406;2023-05-14T12:24:42;101892.97;;;24.92;49.21
79540;BME280;68991;52.122;5.406;2023-05-14T12:27:09;101889.44;;;24.61;49.71
79540;BME280;68991;52.122;5.406;2023-05-14T12:29:36;101901.94;;;24.45;50.28
79540;BME280;68991;52.122;5.406;2023-05-14T12:32:07;101896.72;;;24.32;50.94
79540;BME280;68991;52.122;5.406;2023-05-14T12:34:35;101897.28;;;24.26;50.91
79540;BME280;68991;52.122;5.406;2023-05-14T12:37:03;101895.81;;;24.22;51.24
79540;BME280;68991;52.122;5.406;2023-05-14T12:39:33;101890.25;;;24.12;51.46
79540;BME280;68991;52.122;5.406;2023-05-14T12:42:00;101876.34;;;24.04;51.63
79540;BME280;68991;52.122;5.406;2023-05-14T12:44:27;101873.72;;;24.03;51.78
79540;BME280;68991;52.122;5.406;2023-05-14T12:46:54;101880.94;;;24.04;51.72
79540;BME280;68991;52.122;5.406;2023-05-14T12:49:20;101880.06;;;24.03;51.74
79540;BME280;68991;52.122;5.406;2023-05-14T12:51:47;101871.41;;;23.98;51.92
79540;BME280;68991;52.122;5.406;2023-05-14T12:54:14;101869.78;;;23.96;52.05
79540;BME280;68991;52.122;5.406;2023-05-14T12:56:41;101859.22;;;23.91;52.02
79540;BME280;68991;52.122;5.406;2023-05-14T12:59:07;101867.88;;;23.87;52.52
79540;BME280;68991;52.122;5.406;2023-05-14T13:01:35;101859.03;;;23.83;52.59
79540;BME280;68991;52.122;5.406;2023-05-14T13:04:04;101861.78;;;23.83;52.50
79540;BME280;68991;52.122;5.406;2023-05-14T13:06:31;101863.44;;;23.74;52.97